sensor_id;sensor_type;location;lat;lon;timestamp;P1;durP1;ratioP1;P2;durP2;ratioP2
50429;SDS011;36359;41.556;-8.418;2024-02-23T00:00:53;8.53;;;2.50;;
50429;SDS011;36359;41.556;-8.418;2024-02-23T00:03:18;11.20;;;3.10;;
50429;SDS011;36359;41.556;-8.418;2024-02-23T00:05:44;7.13;;;2.30;;
50429;SDS011;36359;41.556;-8.418;2024-02-23T00:08:10;6.37;;;1.83;;
50429;SDS011;36359;41.556;-8.418;2024-02-23T00:10:35;8.47;;;2.10;;
50429;SDS011;36359;41.556;-8.418;2024-02-23T00:13:01;12.20;;;1.67;;
50429;SDS011;36359;41.556;-8.418;2024-02-23T00:15:27;11.07;;;1.47;;
50429;SDS011;36359;41.556;-8.418;2024-02-23T00:18:11;6.20;;;1.17;;
50429;SDS011;36359;41.556;-8.418;2024-02-23T00:20:38;11.27;;;1.50;;
50429;SDS011;36359;41.556;-8.418;2024-02-23T00:23:04;9.90;;;2.00;;
50429;SDS011;36359;41.556;-8.418;2024-02-23T00:25:29;8.60;;;1.87;;
50429;SDS011;36359;41.556;-8.418;2024-02-23T00:27:55;6.77;;;1.80;;
50429;SDS011;36359;41.556;-8.418;2024-02-23T00:30:21;8.90;;;1.97;;
50429;SDS011;36359;41.556;-8.418;2024-02-23T00:32:46;8.67;;;1.70;;
50429;SDS011;36359;41.556;-8.418;2024-02-23T00:35:12;9.17;;;1.90;;
50429;SDS011;36359;41.556;-8.418;2024-02-23T00:37:38;11.80;;;1.60;;
50429;SDS011;36359;41.556;-8.418;2024-02-23T00:40:04;12.10;;;2.33;;
50429;SDS011;36359;41.556;-8.418;2024-02-23T00:42:30;9.37;;;1.80;;
50429;SDS011;36359;41.556;-8.418;2024-02-23T00:44:56;9.20;;;1.87;;
50429;SDS011;36359;41.556;-8.418;2024-02-23T00:47:22;7.57;;;1.97;;
50429;SDS011;36359;41.556;-8.418;2024-02-23T00:49:48;14.50;;;2.53;;
50429;SDS011;36359;41.556;-8.418;2024-02-23T00:52:14;7.23;;;1.80;;
50429;SDS011;36359;41.556;-8.418;2024-02-23T00:54:40;10.70;;;2.07;;
50429;SDS011;36359;41.556;-8.418;2024-02-23T00:57:05;6.97;;;1.90;;
50429;SDS011;36359;41.556;-8.418;2024-02-23T00:59:31;10.17;;;1.60;;
50429;SDS011;36359;41.556;-8.418;2024-02-23T01:01:57;9.70;;;2.37;;
50429;SDS011;36359;41.556;-8.418;2024-02-23T01:04:23;9.30;;;1.70;;
50429;SDS011;36359;41.556;-8.418;2024-02-23T01:06:49;9.43;;;2.20;;
50429;SDS011;36359;41.556;-8.418;2024-02-23T01:09:15;9.77;;;1.67;;
50429;SDS011;36359;41.556;-8.418;2024-02-23T01:11:46;9.43;;;2.53;;
50429;SDS011;36359;41.556;-8.418;2024-02-23T01:14:12;13.23;;;2.00;;
50429;SDS011;36359;41.556;-8.418;2024-02-23T01:16:38;11.53;;;1.70;;
50429;SDS011;36359;41.556;-8.418;2024-02-23T01:19:04;8.17;;;2.27;;
50429;SDS011;36359;41.556;-8.418;2024-02-23T01:21:30;8.60;;;2.10;;
50429;SDS011;36359;41.556;-8.418;2024-02-23T01:23:55;13.70;;;2.50;;
50429;SDS011;36359;41.556;-8.418;2024-02-23T01:26:23;7.20;;;2.60;;
50429;SDS011;36359;41.556;-8.418;2024-02-23T01:28:49;12.90;;;2.83;;
50429;SDS011;36359;41.556;-8.418;2024-02-23T01:31:14;10.90;;;2.57;;
50429;SDS011;36359;41.556;-8.418;2024-02-23T01:33:40;9.10;;;2.30;;
50429;SDS011;36359;41.556;-8.418;2024-02-23T01:36:06;6.53;;;1.40;;
50429;SDS011;36359;41.556;-8.418;2024-02-23T01:38:32;8.77;;;1.50;;
50429;SDS011;36359;41.556;-8.418;2024-02-23T01:40:59;7.63;;;1.50;;
50429;SDS011;36359;41.556;-8.418;2024-02-23T01:43:25;7.77;;;1.23;;
50429;SDS011;36359;41.556;-8.418;2024-02-23T01:45:51;7.90;;;1.10;;
50429;SDS011;36359;41.556;-8.418;2024-02-23T01:48:17;9.97;;;1.30;;
50429;SDS011;36359;41.556;-8.418;2024-02-23T01:50:44;8.00;;;1.33;;
50429;SDS011;36359;41.556;-8.418;2024-02-23T01:53:10;4.67;;;0.90;;
50429;SDS011;36359;41.556;-8.418;2024-02-23T01:55:41;5.10;;;1.17;;
50429;SDS011;36359;41.556;-8.418;2024-02-23T01:58:09;6.97;;;1.17;;
50429;SDS011;36359;41.556;-8.418;2024-02-23T02:00:35;6.80;;;1.37;;
50429;SDS011;36359;41.556;-8.418;2024-02-23T02:03:02;10.83;;;1.00;;
50429;SDS011;36359;41.556;-8.418;2024-02-23T02:05:28;6.23;;;0.97;;
50429;SDS011;36359;41.556;-8.418;2024-02-23T02:07:54;9.83;;;1.10;;
50429;SDS011;36359;41.556;-8.418;2024-02-23T02:10:24;4.57;;;0.83;;
50429;SDS011;36359;41.556;-8.418;2024-02-23T02:12:50;7.83;;;1.27;;
50429;SDS011;36359;41.556;-8.418;2024-02-23T02:15:16;5.90;;;1.43;;
50429;SDS011;36359;41.556;-8.418;2024-02-23T02:17:42;10.83;;;1.67;;
50429;SDS011;36359;41.556;-8.418;2024-02-23T02:20:11;10.03;;;1.67;;
50429;SDS011;36359;41.556;-8.418;2024-02-23T02:22:37;14.57;;;1.70;;
50429;SDS011;36359;41.556;-8.418;2024-02-23T02:25:04;14.30;;;2.20;;
50429;SDS011;36359;41.556;-8.418;2024-02-23T02:27:30;8.17;;;1.70;;
50429;SDS011;36359;41.556;-8.418;2024-02-23T02:29:56;15.57;;;2.30;;
50429;SDS011;36359;41.556;-8.418;2024-02-23T02:32:22;7.97;;;1.83;;
50429;SDS011;36359;41.556;-8.418;2024-02-23T02:34:48;6.20;;;1.23;;
50429;SDS011;36359;41.556;-8.418;2024-02-23T02:37:14;5.20;;;1.47;;
50429;SDS011;36359;41.556;-8.418;2024-02-23T02:39:40;5.07;;;1.07;;
50429;SDS011;36359;41.556;-8.418;2024-02-23T02:42:06;4.23;;;0.70;;
50429;SDS011;36359;41.556;-8.418;2024-02-23T02:44:32;6.63;;;1.07;;
50429;SDS011;36359;41.556;-8.418;2024-02-23T02:46:58;7.03;;;1.20;;
50429;SDS011;36359;41.556;-8.418;2024-02-23T02:49:24;5.27;;;1.20;;
50429;SDS011;36359;41.556;-8.418;2024-02-23T02:51:50;4.70;;;0.70;;
50429;SDS011;36359;41.556;-8.418;2024-02-23T02:54:15;6.40;;;1.00;;
50429;SDS011;36359;41.556;-8.418;2024-02-23T02:56:42;6.20;;;0.80;;
50429;SDS011;36359;41.556;-8.418;2024-02-23T02:59:09;5.93;;;0.80;;
50429;SDS011;36359;41.556;-8.418;2024-02-23T03:01:35;7.40;;;1.00;;
50429;SDS011;36359;41.556;-8.418;2024-02-23T03:04:01;6.57;;;0.73;;
50429;SDS011;36359;41.556;-8.418;2024-02-23T03:06:27;5.97;;;0.70;;
50429;SDS011;36359;41.556;-8.418;2024-02-23T03:08:52;5.33;;;0.73;;
50429;SDS011;36359;41.556;-8.418;2024-02-23T03:11:18;5.37;;;0.70;;
50429;SDS011;36359;41.556;-8.418;2024-02-23T03:13:44;8.77;;;1.00;;
50429;SDS011;36359;41.556;-8.418;2024-02-23T03:18:47;5.30;;;1.07;;
50429;SDS011;36359;41.556;-8.418;2024-02-23T03:21:13;4.60;;;0.70;;
50429;SDS011;36359;41.556;-8.418;2024-02-23T03:23:40;10.83;;;1.30;;
50429;SDS011;36359;41.556;-8.418;2024-02-23T03:26:06;4.67;;;0.83;;
50429;SDS011;36359;41.556;-8.418;2024-02-23T03:28:32;5.27;;;0.70;;
50429;SDS011;36359;41.556;-8.418;2024-02-23T03:30:59;5.97;;;1.10;;
50429;SDS011;36359;41.556;-8.418;2024-02-23T03:33:25;7.47;;;1.40;;
50429;SDS011;36359;41.556;-8.418;2024-02-23T03:35:51;6.27;;;1.27;;
50429;SDS011;36359;41.556;-8.418;2024-02-23T03:38:17;9.10;;;2.13;;
50429;SDS011;36359;41.556;-8.418;2024-02-23T03:40:42;6.60;;;1.10;;
50429;SDS011;36359;41.556;-8.418;2024-02-23T03:43:08;7.90;;;1.10;;
50429;SDS011;36359;41.556;-8.418;2024-02-23T03:45:34;9.70;;;1.10;;
50429;SDS011;36359;41.556;-8.418;2024-02-23T03:48:00;11.60;;;1.50;;
50429;SDS011;36359;41.556;-8.418;2024-02-23T03:50:29;7.00;;;1.33;;
50429;SDS011;36359;41.556;-8.418;2024-02-23T03:52:55;10.17;;;3.27;;
50429;SDS011;36359;41.556;-8.418;2024-02-23T03:55:21;10.27;;;1.70;;
50429;SDS011;36359;41.556;-8.418;2024-02-23T03:57:47;8.67;;;1.33;;
50429;SDS011;36359;41.556;-8.418;2024-02-23T04:00:13;8.93;;;1.33;;
50429;SDS011;36359;41.556;-8.418;2024-02-23T04:02:40;9.10;;;1.10;;
50429;SDS011;36359;41.556;-8.418;2024-02-23T04:05:06;6.30;;;0.70;;
50429;SDS011;36359;41.556;-8.418;2024-02-23T04:07:32;5.27;;;1.00;;
50429;SDS011;36359;41.556;-8.418;2024-02-23T04:09:58;3.97;;;0.43;;
50429;SDS011;36359;41.556;-8.418;2024-02-23T04:12:32;6.37;;;1.27;;
50429;SDS011;36359;41.556;-8.418;2024-02-23T04:14:58;5.80;;;1.17;;
50429;SDS011;36359;41.556;-8.418;2024-02-23T04:17:24;4.57;;;1.13;;
50429;SDS011;36359;41.556;-8.418;2024-02-23T04:19:50;2.07;;;0.47;;
50429;SDS011;36359;41.556;-8.418;2024-02-23T04:22:15;4.03;;;0.57;;
50429;SDS011;36359;41.556;-8.418;2024-02-23T04:24:41;3.90;;;0.53;;
50429;SDS011;36359;41.556;-8.418;2024-02-23T04:27:07;2.67;;;0.40;;
50429;SDS011;36359;41.556;-8.418;2024-02-23T04:29:33;3.93;;;0.40;;
50429;SDS011;36359;41.556;-8.418;2024-02-23T04:32:00;6.57;;;0.60;;
50429;SDS011;36359;41.556;-8.418;2024-02-23T04:34:27;4.73;;;0.50;;
50429;SDS011;36359;41.556;-8.418;2024-02-23T04:36:53;4.47;;;0.67;;
50429;SDS011;36359;41.556;-8.418;2024-02-23T04:39:19;4.13;;;1.03;;
50429;SDS011;36359;41.556;-8.418;2024-02-23T04:41:45;5.73;;;1.00;;
50429;SDS011;36359;41.556;-8.418;2024-02-23T04:44:11;2.87;;;1.10;;
50429;SDS011;36359;41.556;-8.418;2024-02-23T04:46:36;4.90;;;0.83;;
50429;SDS011;36359;41.556;-8.418;2024-02-23T04:49:02;3.83;;;1.00;;
50429;SDS011;36359;41.556;-8.418;2024-02-23T04:51:28;4.47;;;0.97;;
50429;SDS011;36359;41.556;-8.418;2024-02-23T04:53:53;7.20;;;1.70;;
50429;SDS011;36359;41.556;-8.418;2024-02-23T04:56:19;4.30;;;0.80;;
50429;SDS011;36359;41.556;-8.418;2024-02-23T04:58:45;6.47;;;0.70;;
50429;SDS011;36359;41.556;-8.418;2024-02-23T05:01:12;6.43;;;0.80;;
50429;SDS011;36359;41.556;-8.418;2024-02-23T05:03:38;5.37;;;0.47;;
50429;SDS011;36359;41.556;-8.418;2024-02-23T05:06:04;4.67;;;0.50;;
50429;SDS011;36359;41.556;-8.418;2024-02-23T05:08:30;3.97;;;0.80;;
50429;SDS011;36359;41.556;-8.418;2024-02-23T05:10:56;3.73;;;0.53;;
50429;SDS011;36359;41.556;-8.418;2024-02-23T05:13:22;7.10;;;0.83;;
50429;SDS011;36359;41.556;-8.418;2024-02-23T05:15:49;6.80;;;0.90;;
50429;SDS011;36359;41.556;-8.418;2024-02-23T05:18:14;5.53;;;1.57;;
50429;SDS011;36359;41.556;-8.418;2024-02-23T05:20:40;7.10;;;1.63;;
50429;SDS011;36359;41.556;-8.418;2024-02-23T05:23:06;5.80;;;1.10;;
50429;SDS011;36359;41.556;-8.418;2024-02-23T05:25:32;8.97;;;1.30;;
50429;SDS011;36359;41.556;-8.418;2024-02-23T05:27:58;10.63;;;1.53;;
50429;SDS011;36359;41.556;-8.418;2024-02-23T05:30:23;6.97;;;1.30;;
50429;SDS011;36359;41.556;-8.418;2024-02-23T05:32:50;4.43;;;0.70;;
50429;SDS011;36359;41.556;-8.418;2024-02-23T05:35:16;4.20;;;1.00;;
50429;SDS011;36359;41.556;-8.418;2024-02-23T05:37:41;7.07;;;1.67;;
50429;SDS011;36359;41.556;-8.418;2024-02-23T05:40:07;5.30;;;1.20;;
50429;SDS011;36359;41.556;-8.418;2024-02-23T05:42:36;8.37;;;0.83;;
50429;SDS011;36359;41.556;-8.418;2024-02-23T05:45:02;5.93;;;0.83;;
50429;SDS011;36359;41.556;-8.418;2024-02-23T05:47:32;6.80;;;1.00;;
50429;SDS011;36359;41.556;-8.418;2024-02-23T05:49:58;3.73;;;1.00;;
50429;SDS011;36359;41.556;-8.418;2024-02-23T05:52:24;6.43;;;0.63;;
50429;SDS011;36359;41.556;-8.418;2024-02-23T05:54:50;4.17;;;0.80;;
50429;SDS011;36359;41.556;-8.418;2024-02-23T05:57:17;5.00;;;0.70;;
50429;SDS011;36359;41.556;-8.418;2024-02-23T05:59:42;5.27;;;0.60;;
50429;SDS011;36359;41.556;-8.418;2024-02-23T06:02:08;3.73;;;0.70;;
50429;SDS011;36359;41.556;-8.418;2024-02-23T06:04:34;5.57;;;0.83;;
50429;SDS011;36359;41.556;-8.418;2024-02-23T06:07:00;6.57;;;0.80;;
50429;SDS011;36359;41.556;-8.418;2024-02-23T06:09:25;5.60;;;0.63;;
50429;SDS011;36359;41.556;-8.418;2024-02-23T06:11:51;6.60;;;0.80;;
50429;SDS011;36359;41.556;-8.418;2024-02-23T06:14:17;6.73;;;1.30;;
50429;SDS011;36359;41.556;-8.418;2024-02-23T06:16:43;4.43;;;0.73;;
50429;SDS011;36359;41.556;-8.418;2024-02-23T06:19:08;3.97;;;0.83;;
50429;SDS011;36359;41.556;-8.418;2024-02-23T06:21:34;3.87;;;0.50;;
50429;SDS011;36359;41.556;-8.418;2024-02-23T06:24:00;7.37;;;0.90;;
50429;SDS011;36359;41.556;-8.418;2024-02-23T06:26:26;6.50;;;0.77;;
50429;SDS011;36359;41.556;-8.418;2024-02-23T06:28:51;5.20;;;0.80;;
50429;SDS011;36359;41.556;-8.418;2024-02-23T06:31:17;4.47;;;0.60;;
50429;SDS011;36359;41.556;-8.418;2024-02-23T06:33:43;6.60;;;0.80;;
50429;SDS011;36359;41.556;-8.418;2024-02-23T06:36:09;4.57;;;0.60;;
50429;SDS011;36359;41.556;-8.418;2024-02-23T06:38:35;5.93;;;1.00;;
50429;SDS011;36359;41.556;-8.418;2024-02-23T06:41:00;6.03;;;0.60;;
50429;SDS011;36359;41.556;-8.418;2024-02-23T06:43:26;4.87;;;0.83;;
50429;SDS011;36359;41.556;-8.418;2024-02-23T06:45:52;7.03;;;1.33;;
50429;SDS011;36359;41.556;-8.418;2024-02-23T06:48:18;7.77;;;0.97;;
50429;SDS011;36359;41.556;-8.418;2024-02-23T06:50:44;3.87;;;0.80;;
50429;SDS011;36359;41.556;-8.418;2024-02-23T06:53:09;6.07;;;1.53;;
50429;SDS011;36359;41.556;-8.418;2024-02-23T06:55:35;3.03;;;0.87;;
50429;SDS011;36359;41.556;-8.418;2024-02-23T06:58:01;7.70;;;1.07;;
50429;SDS011;36359;41.556;-8.418;2024-02-23T07:00:27;6.97;;;1.37;;
50429;SDS011;36359;41.556;-8.418;2024-02-23T07:02:53;9.33;;;1.20;;
50429;SDS011;36359;41.556;-8.418;2024-02-23T07:05:19;5.77;;;1.30;;
50429;SDS011;36359;41.556;-8.418;2024-02-23T07:07:45;8.30;;;1.30;;
50429;SDS011;36359;41.556;-8.418;2024-02-23T07:10:11;7.40;;;0.90;;
50429;SDS011;36359;41.556;-8.418;2024-02-23T07:12:37;9.40;;;1.80;;
50429;SDS011;36359;41.556;-8.418;2024-02-23T07:15:03;8.47;;;1.30;;
50429;SDS011;36359;41.556;-8.418;2024-02-23T07:17:29;8.53;;;1.00;;
50429;SDS011;36359;41.556;-8.418;2024-02-23T07:19:55;7.60;;;1.10;;
50429;SDS011;36359;41.556;-8.418;2024-02-23T07:22:28;7.10;;;1.00;;
50429;SDS011;36359;41.556;-8.418;2024-02-23T07:24:54;8.47;;;1.00;;
50429;SDS011;36359;41.556;-8.418;2024-02-23T07:27:19;9.13;;;1.23;;
50429;SDS011;36359;41.556;-8.418;2024-02-23T07:29:45;8.60;;;1.40;;
50429;SDS011;36359;41.556;-8.418;2024-02-23T07:32:11;5.40;;;1.00;;
50429;SDS011;36359;41.556;-8.418;2024-02-23T07:34:36;10.63;;;1.23;;
50429;SDS011;36359;41.556;-8.418;2024-02-23T07:37:02;10.33;;;1.33;;
50429;SDS011;36359;41.556;-8.418;2024-02-23T07:39:29;7.77;;;1.10;;
50429;SDS011;36359;41.556;-8.418;2024-02-23T07:41:54;7.10;;;0.97;;
50429;SDS011;36359;41.556;-8.418;2024-02-23T07:44:20;9.73;;;2.20;;
50429;SDS011;36359;41.556;-8.418;2024-02-23T07:46:46;9.70;;;1.40;;
50429;SDS011;36359;41.556;-8.418;2024-02-23T07:49:12;8.57;;;1.30;;
50429;SDS011;36359;41.556;-8.418;2024-02-23T07:51:37;6.03;;;1.40;;
50429;SDS011;36359;41.556;-8.418;2024-02-23T07:54:03;9.33;;;1.67;;
50429;SDS011;36359;41.556;-8.418;2024-02-23T07:56:29;8.10;;;1.90;;
50429;SDS011;36359;41.556;-8.418;2024-02-23T07:58:55;7.60;;;1.47;;
50429;SDS011;36359;41.556;-8.418;2024-02-23T08:01:21;9.27;;;1.50;;
50429;SDS011;36359;41.556;-8.418;2024-02-23T08:03:47;12.10;;;1.30;;
50429;SDS011;36359;41.556;-8.418;2024-02-23T08:06:14;6.20;;;1.33;;
50429;SDS011;36359;41.556;-8.418;2024-02-23T08:08:42;9.20;;;1.80;;
50429;SDS011;36359;41.556;-8.418;2024-02-23T08:11:11;8.00;;;1.70;;
50429;SDS011;36359;41.556;-8.418;2024-02-23T08:13:37;9.77;;;1.80;;
50429;SDS011;36359;41.556;-8.418;2024-02-23T08:16:06;14.83;;;3.10;;
50429;SDS011;36359;41.556;-8.418;2024-02-23T08:18:32;23.50;;;15.87;;
50429;SDS011;36359;41.556;-8.418;2024-02-23T08:20:59;21.07;;;10.73;;
50429;SDS011;36359;41.556;-8.418;2024-02-23T08:23:28;18.33;;;9.87;;
50429;SDS011;36359;41.556;-8.418;2024-02-23T08:25:55;8.93;;;2.00;;
50429;SDS011;36359;41.556;-8.418;2024-02-23T08:28:25;13.48;;;4.40;;
50429;SDS011;36359;41.556;-8.418;2024-02-23T08:30:51;19.60;;;7.47;;
50429;SDS011;36359;41.556;-8.418;2024-02-23T08:33:18;18.93;;;9.47;;
50429;SDS011;36359;41.556;-8.418;2024-02-23T08:35:45;15.23;;;4.93;;
50429;SDS011;36359;41.556;-8.418;2024-02-23T08:38:11;8.83;;;2.17;;
50429;SDS011;36359;41.556;-8.418;2024-02-23T08:40:36;11.17;;;2.37;;
50429;SDS011;36359;41.556;-8.418;2024-02-23T08:43:02;11.20;;;2.10;;
50429;SDS011;36359;41.556;-8.418;2024-02-23T08:45:28;13.13;;;1.87;;
50429;SDS011;36359;41.556;-8.418;2024-02-23T08:47:54;12.93;;;2.03;;
50429;SDS011;36359;41.556;-8.418;2024-02-23T08:50:26;9.57;;;1.70;;
50429;SDS011;36359;41.556;-8.418;2024-02-23T08:53:16;9.03;;;1.60;;
50429;SDS011;36359;41.556;-8.418;2024-02-23T08:55:42;9.07;;;1.70;;
50429;SDS011;36359;41.556;-8.418;2024-02-23T08:58:08;7.83;;;1.90;;
50429;SDS011;36359;41.556;-8.418;2024-02-23T09:00:34;13.17;;;2.03;;
50429;SDS011;36359;41.556;-8.418;2024-02-23T09:03:02;8.80;;;1.63;;
50429;SDS011;36359;41.556;-8.418;2024-02-23T09:05:28;11.43;;;1.90;;
50429;SDS011;36359;41.556;-8.418;2024-02-23T09:07:54;10.73;;;2.20;;
50429;SDS011;36359;41.556;-8.418;2024-02-23T09:10:20;10.50;;;1.63;;
50429;SDS011;36359;41.556;-8.418;2024-02-23T09:12:46;9.40;;;2.00;;
50429;SDS011;36359;41.556;-8.418;2024-02-23T09:15:12;5.40;;;1.47;;
50429;SDS011;36359;41.556;-8.418;2024-02-23T09:17:40;8.03;;;1.63;;
50429;SDS011;36359;41.556;-8.418;2024-02-23T09:20:06;7.80;;;1.57;;
50429;SDS011;36359;41.556;-8.418;2024-02-23T09:22:33;8.90;;;1.47;;
50429;SDS011;36359;41.556;-8.418;2024-02-23T09:25:02;10.77;;;2.03;;
50429;SDS011;36359;41.556;-8.418;2024-02-23T09:27:30;12.47;;;2.00;;
50429;SDS011;36359;41.556;-8.418;2024-02-23T09:29:56;15.77;;;2.43;;
50429;SDS011;36359;41.556;-8.418;2024-02-23T09:32:23;8.10;;;2.33;;
50429;SDS011;36359;41.556;-8.418;2024-02-23T09:34:49;10.10;;;1.70;;
50429;SDS011;36359;41.556;-8.418;2024-02-23T09:37:15;11.27;;;2.00;;
50429;SDS011;36359;41.556;-8.418;2024-02-23T09:39:41;8.83;;;1.70;;
50429;SDS011;36359;41.556;-8.418;2024-02-23T09:42:08;13.63;;;1.90;;
50429;SDS011;36359;41.556;-8.418;2024-02-23T09:44:37;11.70;;;2.27;;
50429;SDS011;36359;41.556;-8.418;2024-02-23T09:47:03;9.93;;;1.67;;
50429;SDS011;36359;41.556;-8.418;2024-02-23T09:49:40;10.43;;;1.63;;
50429;SDS011;36359;41.556;-8.418;2024-02-23T09:52:09;10.73;;;1.87;;
50429;SDS011;36359;41.556;-8.418;2024-02-23T09:54:38;10.30;;;1.90;;
50429;SDS011;36359;41.556;-8.418;2024-02-23T09:57:08;11.97;;;2.10;;
50429;SDS011;36359;41.556;-8.418;2024-02-23T09:59:34;16.37;;;3.30;;
50429;SDS011;36359;41.556;-8.418;2024-02-23T10:02:02;9.03;;;2.20;;
50429;SDS011;36359;41.556;-8.418;2024-02-23T10:04:35;15.87;;;2.00;;
50429;SDS011;36359;41.556;-8.418;2024-02-23T10:07:01;13.30;;;1.80;;
50429;SDS011;36359;41.556;-8.418;2024-02-23T10:09:29;10.17;;;1.87;;
50429;SDS011;36359;41.556;-8.418;2024-02-23T10:11:56;9.90;;;1.73;;
50429;SDS011;36359;41.556;-8.418;2024-02-23T10:14:25;6.03;;;1.70;;
50429;SDS011;36359;41.556;-8.418;2024-02-23T10:16:51;12.77;;;1.87;;
50429;SDS011;36359;41.556;-8.418;2024-02-23T10:19:19;7.53;;;2.10;;
50429;SDS011;36359;41.556;-8.418;2024-02-23T10:21:45;8.67;;;3.47;;
50429;SDS011;36359;41.556;-8.418;2024-02-23T10:24:12;11.07;;;2.10;;
50429;SDS011;36359;41.556;-8.418;2024-02-23T10:26:41;10.83;;;2.80;;
50429;SDS011;36359;41.556;-8.418;2024-02-23T10:29:07;14.67;;;2.23;;
50429;SDS011;36359;41.556;-8.418;2024-02-23T10:31:36;11.27;;;1.60;;
50429;SDS011;36359;41.556;-8.418;2024-02-23T10:34:05;10.40;;;1.60;;
50429;SDS011;36359;41.556;-8.418;2024-02-23T10:36:40;9.50;;;1.93;;
50429;SDS011;36359;41.556;-8.418;2024-02-23T10:39:16;8.87;;;1.60;;
50429;SDS011;36359;41.556;-8.418;2024-02-23T10:41:56;7.53;;;1.63;;
50429;SDS011;36359;41.556;-8.418;2024-02-23T10:44:24;9.63;;;1.93;;
50429;SDS011;36359;41.556;-8.418;2024-02-23T10:46:52;8.53;;;1.80;;
50429;SDS011;36359;41.556;-8.418;2024-02-23T10:49:18;8.30;;;1.80;;
50429;SDS011;36359;41.556;-8.418;2024-02-23T10:51:47;12.32;;;2.75;;
50429;SDS011;36359;41.556;-8.418;2024-02-23T10:54:14;10.55;;;1.65;;
50429;SDS011;36359;41.556;-8.418;2024-02-23T10:56:46;8.63;;;1.65;;
50429;SDS011;36359;41.556;-8.418;2024-02-23T10:59:19;11.55;;;2.55;;
50429;SDS011;36359;41.556;-8.418;2024-02-23T11:01:47;13.23;;;1.92;;
50429;SDS011;36359;41.556;-8.418;2024-02-23T11:04:15;12.33;;;2.63;;
50429;SDS011;36359;41.556;-8.418;2024-02-23T11:06:42;12.32;;;3.20;;
50429;SDS011;36359;41.556;-8.418;2024-02-23T11:09:14;35.80;;;9.70;;
50429;SDS011;36359;41.556;-8.418;2024-02-23T11:11:50;22.97;;;5.73;;
50429;SDS011;36359;41.556;-8.418;2024-02-23T11:14:28;11.47;;;2.27;;
50429;SDS011;36359;41.556;-8.418;2024-02-23T11:17:00;16.27;;;2.58;;
50429;SDS011;36359;41.556;-8.418;2024-02-23T11:19:36;18.43;;;4.20;;
50429;SDS011;36359;41.556;-8.418;2024-02-23T11:22:03;14.87;;;2.73;;
50429;SDS011;36359;41.556;-8.418;2024-02-23T11:24:30;14.73;;;3.47;;
50429;SDS011;36359;41.556;-8.418;2024-02-23T11:27:00;13.83;;;3.70;;
50429;SDS011;36359;41.556;-8.418;2024-02-23T11:29:33;11.23;;;2.43;;
50429;SDS011;36359;41.556;-8.418;2024-02-23T11:32:01;12.80;;;1.93;;
50429;SDS011;36359;41.556;-8.418;2024-02-23T11:34:29;11.13;;;2.17;;
50429;SDS011;36359;41.556;-8.418;2024-02-23T11:36:55;7.37;;;1.43;;
50429;SDS011;36359;41.556;-8.418;2024-02-23T11:39:23;11.32;;;2.40;;
50429;SDS011;36359;41.556;-8.418;2024-02-23T11:41:49;11.35;;;2.50;;
50429;SDS011;36359;41.556;-8.418;2024-02-23T11:44:15;13.10;;;2.78;;
50429;SDS011;36359;41.556;-8.418;2024-02-23T11:46:46;15.38;;;3.05;;
50429;SDS011;36359;41.556;-8.418;2024-02-23T11:49:13;13.15;;;3.90;;
50429;SDS011;36359;41.556;-8.418;2024-02-23T11:51:41;9.27;;;1.88;;
50429;SDS011;36359;41.556;-8.418;2024-02-23T11:54:07;14.18;;;2.75;;
50429;SDS011;36359;41.556;-8.418;2024-02-23T11:56:36;12.60;;;2.65;;
50429;SDS011;36359;41.556;-8.418;2024-02-23T11:59:02;11.27;;;2.08;;
50429;SDS011;36359;41.556;-8.418;2024-02-23T12:01:31;8.98;;;3.00;;
50429;SDS011;36359;41.556;-8.418;2024-02-23T12:03:57;15.85;;;3.22;;
50429;SDS011;36359;41.556;-8.418;2024-02-23T12:06:23;11.15;;;2.53;;
50429;SDS011;36359;41.556;-8.418;2024-02-23T12:08:52;12.00;;;2.17;;
50429;SDS011;36359;41.556;-8.418;2024-02-23T12:11:18;12.23;;;2.15;;
50429;SDS011;36359;41.556;-8.418;2024-02-23T12:13:45;14.48;;;2.53;;
50429;SDS011;36359;41.556;-8.418;2024-02-23T12:16:12;13.50;;;2.63;;
50429;SDS011;36359;41.556;-8.418;2024-02-23T12:18:37;15.60;;;3.40;;
50429;SDS011;36359;41.556;-8.418;2024-02-23T12:21:08;14.20;;;2.80;;
50429;SDS011;36359;41.556;-8.418;2024-02-23T12:26:06;14.87;;;2.60;;
50429;SDS011;36359;41.556;-8.418;2024-02-23T12:28:33;16.57;;;4.53;;
50429;SDS011;36359;41.556;-8.418;2024-02-23T12:31:02;15.53;;;3.00;;
50429;SDS011;36359;41.556;-8.418;2024-02-23T12:33:30;15.18;;;3.38;;
50429;SDS011;36359;41.556;-8.418;2024-02-23T12:35:58;17.07;;;3.40;;
50429;SDS011;36359;41.556;-8.418;2024-02-23T12:38:24;16.70;;;2.63;;
50429;SDS011;36359;41.556;-8.418;2024-02-23T12:40:50;21.23;;;3.43;;
50429;SDS011;36359;41.556;-8.418;2024-02-23T12:43:17;12.30;;;2.07;;
50429;SDS011;36359;41.556;-8.418;2024-02-23T12:45:43;14.27;;;2.47;;
50429;SDS011;36359;41.556;-8.418;2024-02-23T12:48:10;14.03;;;2.50;;
50429;SDS011;36359;41.556;-8.418;2024-02-23T12:50:36;13.93;;;2.30;;
50429;SDS011;36359;41.556;-8.418;2024-02-23T12:53:02;11.67;;;1.93;;
50429;SDS011;36359;41.556;-8.418;2024-02-23T12:55:29;19.07;;;2.43;;
50429;SDS011;36359;41.556;-8.418;2024-02-23T12:57:55;11.83;;;1.90;;
50429;SDS011;36359;41.556;-8.418;2024-02-23T13:00:20;12.63;;;2.13;;
50429;SDS011;36359;41.556;-8.418;2024-02-23T13:02:46;9.37;;;2.00;;
50429;SDS011;36359;41.556;-8.418;2024-02-23T13:05:12;12.13;;;2.37;;
50429;SDS011;36359;41.556;-8.418;2024-02-23T13:07:38;9.63;;;1.70;;
50429;SDS011;36359;41.556;-8.418;2024-02-23T13:10:05;12.15;;;2.10;;
50429;SDS011;36359;41.556;-8.418;2024-02-23T13:12:32;12.70;;;3.03;;
50429;SDS011;36359;41.556;-8.418;2024-02-23T13:14:58;10.10;;;2.03;;
50429;SDS011;36359;41.556;-8.418;2024-02-23T13:17:24;9.50;;;1.85;;
50429;SDS011;36359;41.556;-8.418;2024-02-23T13:19:50;9.88;;;1.90;;
50429;SDS011;36359;41.556;-8.418;2024-02-23T13:22:16;7.88;;;2.50;;
50429;SDS011;36359;41.556;-8.418;2024-02-23T13:24:41;5.97;;;1.33;;
50429;SDS011;36359;41.556;-8.418;2024-02-23T13:27:07;10.90;;;1.77;;
50429;SDS011;36359;41.556;-8.418;2024-02-23T13:29:33;8.40;;;1.42;;
50429;SDS011;36359;41.556;-8.418;2024-02-23T13:31:58;7.38;;;2.00;;
50429;SDS011;36359;41.556;-8.418;2024-02-23T13:34:24;7.60;;;1.60;;
50429;SDS011;36359;41.556;-8.418;2024-02-23T13:36:50;9.60;;;1.75;;
50429;SDS011;36359;41.556;-8.418;2024-02-23T13:39:17;17.05;;;2.63;;
50429;SDS011;36359;41.556;-8.418;2024-02-23T13:41:43;10.80;;;2.60;;
50429;SDS011;36359;41.556;-8.418;2024-02-23T13:44:09;14.27;;;2.83;;
50429;SDS011;36359;41.556;-8.418;2024-02-23T13:46:35;8.37;;;1.50;;
50429;SDS011;36359;41.556;-8.418;2024-02-23T13:49:04;21.33;;;5.17;;
50429;SDS011;36359;41.556;-8.418;2024-02-23T13:51:34;11.98;;;2.92;;
50429;SDS011;36359;41.556;-8.418;2024-02-23T13:54:00;11.50;;;3.00;;
50429;SDS011;36359;41.556;-8.418;2024-02-23T13:56:26;9.23;;;2.07;;
50429;SDS011;36359;41.556;-8.418;2024-02-23T13:58:51;14.73;;;2.63;;
50429;SDS011;36359;41.556;-8.418;2024-02-23T14:01:17;11.33;;;2.77;;
50429;SDS011;36359;41.556;-8.418;2024-02-23T14:03:43;11.73;;;2.13;;
50429;SDS011;36359;41.556;-8.418;2024-02-23T14:06:09;9.60;;;1.40;;
50429;SDS011;36359;41.556;-8.418;2024-02-23T14:08:35;5.60;;;1.40;;
50429;SDS011;36359;41.556;-8.418;2024-02-23T14:11:02;7.83;;;1.10;;
50429;SDS011;36359;41.556;-8.418;2024-02-23T14:13:31;12.87;;;1.60;;
50429;SDS011;36359;41.556;-8.418;2024-02-23T14:15:57;14.13;;;1.90;;
50429;SDS011;36359;41.556;-8.418;2024-02-23T14:18:23;13.37;;;1.97;;
50429;SDS011;36359;41.556;-8.418;2024-02-23T14:20:49;10.60;;;2.30;;
50429;SDS011;36359;41.556;-8.418;2024-02-23T14:23:17;12.57;;;3.10;;
50429;SDS011;36359;41.556;-8.418;2024-02-23T14:25:43;12.33;;;3.70;;
50429;SDS011;36359;41.556;-8.418;2024-02-23T14:28:09;8.13;;;1.83;;
50429;SDS011;36359;41.556;-8.418;2024-02-23T14:30:35;16.83;;;3.97;;